createdAt,value
2018-09-06T01:31:38.524Z,1013.97
2018-09-06T01:31:39.095Z,1013.94
2018-09-06T01:31:39.692Z,1013.95
2018-09-06T01:31:40.290Z,1013.94
2018-09-06T01:31:40.892Z,1013.96
2018-09-06T01:31:41.492Z,1013.95
2018-09-06T01:31:42.091Z,1013.97
2018-09-06T01:31:42.691Z,1013.97
2018-09-06T01:32:36.170Z,1013.97
2018-09-06T01:32:36.744Z,1013.96
2018-09-06T01:32:37.343Z,1013.94
2018-09-06T01:32:37.945Z,1013.95
2018-09-06T01:32:38.544Z,1013.95
2018-09-06T01:32:39.145Z,1013.96
2018-09-06T01:32:39.743Z,1013.94
2018-09-06T01:32:40.343Z,1013.92
2018-09-06T01:33:34.849Z,1013.90
2018-09-06T01:33:35.419Z,1013.97
2018-09-06T01:33:36.020Z,1013.95
2018-09-06T01:33:36.622Z,1013.93
2018-09-06T01:33:37.219Z,1013.94
2018-09-06T01:33:37.821Z,1013.92
2018-09-06T01:33:38.421Z,1013.91
2018-09-06T01:33:39.022Z,1013.94
2018-09-06T01:34:32.500Z,1013.90
2018-09-06T01:34:33.073Z,1013.89
2018-09-06T01:34:33.673Z,1013.92
2018-09-06T01:34:34.272Z,1013.90
2018-09-06T01:34:34.872Z,1013.89
2018-09-06T01:34:35.473Z,1013.90
2018-09-06T01:34:36.074Z,1013.91
2018-09-06T01:34:36.672Z,1013.93
2018-09-06T01:35:30.151Z,1013.89
2018-09-06T01:35:30.726Z,1013.90
2018-09-06T01:35:31.324Z,1013.90
2018-09-06T01:35:31.925Z,1013.88
2018-09-06T01:35:32.525Z,1013.88
2018-09-06T01:35:33.124Z,1013.91
2018-09-06T01:35:33.724Z,1013.90
2018-09-06T01:35:34.323Z,1013.90
2018-09-06T01:36:27.805Z,1013.90
2018-09-06T01:36:28.377Z,1013.89
2018-09-06T01:36:28.976Z,1013.91
2018-09-06T01:36:29.577Z,1013.90
2018-09-06T01:36:30.178Z,1013.90
2018-09-06T01:36:30.777Z,1013.91
2018-09-06T01:36:31.380Z,1013.91
2018-09-06T01:36:31.976Z,1013.89
2018-09-06T01:37:26.480Z,1013.84
2018-09-06T01:37:27.055Z,1013.85
2018-09-06T01:37:27.653Z,1013.85
2018-09-06T01:37:28.252Z,1013.85
2018-09-06T01:37:28.851Z,1013.87
2018-09-06T01:37:29.455Z,1013.87
2018-09-06T01:37:30.051Z,1013.87
2018-09-06T01:37:30.654Z,1013.85
2018-09-06T01:38:24.137Z,1013.83
2018-09-06T01:38:24.721Z,1013.84
2018-09-06T01:38:25.322Z,1013.86
2018-09-06T01:38:25.926Z,1013.82
2018-09-06T01:38:26.519Z,1013.80
2018-09-06T01:38:27.171Z,1013.83
2018-09-06T01:38:27.712Z,1013.81
2018-09-06T01:38:28.344Z,1013.81
2018-09-06T01:39:21.794Z,1013.80
2018-09-06T01:39:22.357Z,1013.81
2018-09-06T01:39:22.957Z,1013.80
2018-09-06T01:39:23.557Z,1013.83
2018-09-06T01:39:24.157Z,1013.81
2018-09-06T01:39:24.755Z,1013.84
2018-09-06T01:39:25.367Z,1013.82
2018-09-06T01:39:25.956Z,1013.83
2018-09-06T01:40:20.458Z,1013.83
2018-09-06T01:40:21.032Z,1013.80
2018-09-06T01:40:21.632Z,1013.81
2018-09-06T01:40:22.231Z,1013.78
2018-09-06T01:40:22.833Z,1013.82
2018-09-06T01:40:23.435Z,1013.85
2018-09-06T01:40:24.035Z,1013.85
2018-09-06T01:40:24.633Z,1013.83
2018-09-06T01:41:19.140Z,1013.82
2018-09-06T01:41:19.707Z,1013.79
2018-09-06T01:41:20.309Z,1013.81
2018-09-06T01:41:20.909Z,1013.85
2018-09-06T01:41:21.509Z,1013.83
2018-09-06T01:41:22.107Z,1013.85
2018-09-06T01:41:22.709Z,1013.83
2018-09-06T01:41:23.308Z,1013.84
2018-09-06T01:42:17.810Z,1013.79
2018-09-06T01:42:18.399Z,1013.81
2018-09-06T01:42:18.984Z,1013.79
2018-09-06T01:42:19.582Z,1013.79
2018-09-06T01:42:20.185Z,1013.77
2018-09-06T01:42:20.784Z,1013.83
2018-09-06T01:42:21.382Z,1013.81
2018-09-06T01:42:21.983Z,1013.80
2018-09-06T01:43:15.463Z,1013.80
2018-09-06T01:43:16.036Z,1013.81
2018-09-06T01:43:16.636Z,1013.82
2018-09-06T01:43:17.237Z,1013.82
2018-09-06T01:43:17.840Z,1013.81
2018-09-06T01:43:18.436Z,1013.82
2018-09-06T01:43:19.037Z,1013.79
2018-09-06T01:43:19.636Z,1013.81
2018-09-06T01:44:14.139Z,1013.81
2018-09-06T01:44:14.712Z,1013.81
2018-09-06T01:44:15.312Z,1013.81
2018-09-06T01:44:15.911Z,1013.79
2018-09-06T01:44:16.514Z,1013.79
2018-09-06T01:44:17.110Z,1013.80
2018-09-06T01:44:17.711Z,1013.75
2018-09-06T01:44:18.314Z,1013.83
2018-09-06T01:45:12.814Z,1013.83
2018-09-06T01:45:13.388Z,1013.82
2018-09-06T01:45:13.987Z,1013.81
2018-09-06T01:45:14.588Z,1013.84
2018-09-06T01:45:15.190Z,1013.82
2018-09-06T01:45:15.788Z,1013.83
2018-09-06T01:45:16.387Z,1013.83
2018-09-06T01:45:16.988Z,1013.84
2018-09-06T01:46:11.492Z,1013.82
2018-09-06T01:46:12.064Z,1013.84
2018-09-06T01:46:12.663Z,1013.84
2018-09-06T01:46:13.263Z,1013.83
2018-09-06T01:46:13.861Z,1013.81
2018-09-06T01:46:14.462Z,1013.84
2018-09-06T01:46:15.062Z,1013.86
2018-09-06T01:46:15.671Z,1013.83
2018-09-06T01:47:09.142Z,1013.85
2018-09-06T01:47:09.716Z,1013.82
2018-09-06T01:47:10.315Z,1013.86
2018-09-06T01:47:10.915Z,1013.83
2018-09-06T01:47:11.518Z,1013.83
2018-09-06T01:47:12.116Z,1013.84
2018-09-06T01:47:12.715Z,1013.85
2018-09-06T01:47:13.315Z,1013.86
2018-09-06T01:48:06.796Z,1013.83
2018-09-06T01:48:07.367Z,1013.85
2018-09-06T01:48:07.967Z,1013.80
2018-09-06T01:48:08.567Z,1013.84
2018-09-06T01:48:09.168Z,1013.84
2018-09-06T01:48:09.767Z,1013.84
2018-09-06T01:48:10.367Z,1013.81
2018-09-06T01:48:10.967Z,1013.86
2018-09-06T01:49:04.449Z,1013.85
2018-09-06T01:49:05.019Z,1013.83
2018-09-06T01:49:05.618Z,1013.84
2018-09-06T01:49:06.219Z,1013.85
2018-09-06T01:49:06.821Z,1013.82
2018-09-06T01:49:07.420Z,1013.83
2018-09-06T01:49:08.019Z,1013.81
2018-09-06T01:49:08.618Z,1013.82
2018-09-06T01:50:03.121Z,1013.81
2018-09-06T01:50:03.693Z,1013.82
2018-09-06T01:50:04.293Z,1013.78
2018-09-06T01:50:04.893Z,1013.79
2018-09-06T01:50:05.495Z,1013.82
2018-09-06T01:50:06.094Z,1013.78
2018-09-06T01:50:06.701Z,1013.79
2018-09-06T01:50:07.293Z,1013.77
2018-09-06T01:51:01.287Z,1013.78
2018-09-06T01:51:01.865Z,1013.79
2018-09-06T01:51:02.458Z,1013.80
2018-09-06T01:51:03.059Z,1013.82
2018-09-06T01:51:03.658Z,1013.83
2018-09-06T01:51:04.258Z,1013.81
2018-09-06T01:51:04.858Z,1013.82
2018-09-06T01:51:58.429Z,1013.80
2018-09-06T01:51:58.999Z,1013.78
2018-09-06T01:51:59.599Z,1013.81
2018-09-06T01:52:00.201Z,1013.80
2018-09-06T01:52:00.800Z,1013.78
2018-09-06T01:52:01.400Z,1013.80
2018-09-06T01:52:02.000Z,1013.81
2018-09-06T01:52:02.599Z,1013.81
2018-09-06T01:52:57.614Z,1013.77
2018-09-06T01:52:58.186Z,1013.79
2018-09-06T01:52:58.785Z,1013.80
2018-09-06T01:52:59.384Z,1013.81
2018-09-06T01:52:59.985Z,1013.81
2018-09-06T01:53:00.585Z,1013.78
2018-09-06T01:53:01.184Z,1013.78
2018-09-06T01:53:54.753Z,1013.76
2018-09-06T01:53:55.327Z,1013.76
2018-09-06T01:53:55.927Z,1013.79
2018-09-06T01:53:56.525Z,1013.79
2018-09-06T01:53:57.126Z,1013.80
2018-09-06T01:53:57.725Z,1013.80
2018-09-06T01:53:58.325Z,1013.79
2018-09-06T01:53:58.925Z,1013.80
2018-09-06T01:54:52.406Z,1013.76
2018-09-06T01:54:52.977Z,1013.80
2018-09-06T01:54:53.578Z,1013.78
2018-09-06T01:54:54.180Z,1013.78
2018-09-06T01:54:54.779Z,1013.74
2018-09-06T01:54:55.377Z,1013.77
2018-09-06T01:54:55.980Z,1013.78
2018-09-06T01:54:56.577Z,1013.77
2018-09-06T01:55:50.058Z,1013.78
2018-09-06T01:55:50.629Z,1013.77
2018-09-06T01:55:51.229Z,1013.76
2018-09-06T01:55:51.830Z,1013.79
2018-09-06T01:55:52.430Z,1013.79
2018-09-06T01:55:53.029Z,1013.76
2018-09-06T01:55:53.628Z,1013.77
2018-09-06T01:55:54.228Z,1013.76
2018-09-06T01:56:48.733Z,1013.77
2018-09-06T01:56:49.305Z,1013.76
2018-09-06T01:56:49.906Z,1013.76
2018-09-06T01:56:50.505Z,1013.76
2018-09-06T01:56:51.106Z,1013.76
2018-09-06T01:56:51.705Z,1013.78
2018-09-06T01:56:52.304Z,1013.77
2018-09-06T01:56:52.907Z,1013.77
2018-09-06T01:57:47.409Z,1013.74
2018-09-06T01:57:47.981Z,1013.77
2018-09-06T01:57:48.581Z,1013.75
2018-09-06T01:57:49.180Z,1013.73
2018-09-06T01:57:49.781Z,1013.76
2018-09-06T01:57:50.379Z,1013.77
2018-09-06T01:57:50.980Z,1013.74
2018-09-06T01:57:51.578Z,1013.78
2018-09-06T01:58:46.083Z,1013.75
2018-09-06T01:58:46.657Z,1013.79
2018-09-06T01:58:47.257Z,1013.72
2018-09-06T01:58:47.855Z,1013.74
2018-09-06T01:58:48.457Z,1013.72
2018-09-06T01:58:49.055Z,1013.76
2018-09-06T01:58:49.656Z,1013.77
2018-09-06T01:58:50.260Z,1013.76
2018-09-06T01:59:44.761Z,1013.74
2018-09-06T01:59:45.331Z,1013.75
2018-09-06T01:59:45.932Z,1013.75
2018-09-06T01:59:46.531Z,1013.73
2018-09-06T01:59:47.133Z,1013.73
2018-09-06T01:59:47.731Z,1013.78
2018-09-06T01:59:48.331Z,1013.75
2018-09-06T01:59:48.930Z,1013.73
2018-09-06T02:00:42.412Z,1013.75
2018-09-06T02:00:42.989Z,1013.76
2018-09-06T02:00:43.583Z,1013.74
2018-09-06T02:00:44.185Z,1013.78
2018-09-06T02:00:44.787Z,1013.76
2018-09-06T02:00:45.383Z,1013.75
2018-09-06T02:00:45.989Z,1013.76
2018-09-06T02:00:46.584Z,1013.78
2018-09-06T02:01:41.088Z,1013.77
2018-09-06T02:01:41.660Z,1013.76
2018-09-06T02:01:42.259Z,1013.77
2018-09-06T02:01:42.859Z,1013.79
2018-09-06T02:01:43.463Z,1013.77
2018-09-06T02:01:44.059Z,1013.76
2018-09-06T02:01:44.658Z,1013.75
2018-09-06T02:01:45.258Z,1013.75
2018-09-06T02:02:38.741Z,1013.77
2018-09-06T02:02:39.311Z,1013.77
2018-09-06T02:02:39.912Z,1013.77
2018-09-06T02:02:40.512Z,1013.76
2018-09-06T02:02:41.113Z,1013.76
2018-09-06T02:02:41.714Z,1013.76
2018-09-06T02:02:42.311Z,1013.77
2018-09-06T02:02:42.912Z,1013.77
2018-09-06T02:03:37.415Z,1013.71
2018-09-06T02:03:37.987Z,1013.74
2018-09-06T02:03:38.587Z,1013.74
2018-09-06T02:03:39.192Z,1013.76
2018-09-06T02:03:39.787Z,1013.74
2018-09-06T02:03:40.387Z,1013.75
2018-09-06T02:03:40.986Z,1013.76
2018-09-06T02:03:41.588Z,1013.73
2018-09-06T02:04:36.091Z,1013.75
2018-09-06T02:04:36.663Z,1013.74
2018-09-06T02:04:37.262Z,1013.71
2018-09-06T02:04:37.863Z,1013.74
2018-09-06T02:04:38.465Z,1013.75
2018-09-06T02:04:39.062Z,1013.74
2018-09-06T02:04:39.663Z,1013.75
2018-09-06T02:04:40.263Z,1013.76
2018-09-06T02:05:33.745Z,1013.72
2018-09-06T02:05:34.316Z,1013.70
2018-09-06T02:05:34.915Z,1013.73
2018-09-06T02:05:35.515Z,1013.73
2018-09-06T02:05:36.117Z,1013.72
2018-09-06T02:05:36.715Z,1013.71
2018-09-06T02:05:37.313Z,1013.72
2018-09-06T02:05:37.914Z,1013.72
2018-09-06T02:06:31.396Z,1013.70
2018-09-06T02:06:31.965Z,1013.67
2018-09-06T02:06:32.566Z,1013.67
2018-09-06T02:06:33.168Z,1013.71
2018-09-06T02:06:33.768Z,1013.71
2018-09-06T02:06:34.365Z,1013.70
2018-09-06T02:06:34.965Z,1013.71
2018-09-06T02:06:35.566Z,1013.72
2018-09-06T02:07:30.071Z,1013.64
2018-09-06T02:07:30.646Z,1013.71
2018-09-06T02:07:31.242Z,1013.70
2018-09-06T02:07:31.841Z,1013.69
2018-09-06T02:07:32.443Z,1013.69
2018-09-06T02:07:33.044Z,1013.68
2018-09-06T02:07:33.641Z,1013.68
2018-09-06T02:07:34.241Z,1013.68
2018-09-06T02:08:28.745Z,1013.69
2018-09-06T02:08:29.322Z,1013.70
2018-09-06T02:08:29.915Z,1013.67
2018-09-06T02:08:30.518Z,1013.64
2018-09-06T02:08:31.117Z,1013.69
2018-09-06T02:08:31.718Z,1013.67
2018-09-06T02:08:32.315Z,1013.65
2018-09-06T02:08:32.915Z,1013.68
2018-09-06T02:09:27.419Z,1013.67
2018-09-06T02:09:27.998Z,1013.65
2018-09-06T02:09:28.618Z,1013.66
2018-09-06T02:09:29.195Z,1013.66
2018-09-06T02:09:29.797Z,1013.66
2018-09-06T02:09:30.410Z,1013.65
2018-09-06T02:09:31.037Z,1013.66
2018-09-06T02:09:31.661Z,1013.66
2018-09-06T02:10:25.073Z,1013.64
2018-09-06T02:10:25.646Z,1013.61
2018-09-06T02:10:26.245Z,1013.62
2018-09-06T02:10:26.854Z,1013.72
2018-09-06T02:10:27.444Z,1013.65
2018-09-06T02:10:28.044Z,1013.66
2018-09-06T02:10:28.643Z,1013.64
2018-09-06T02:10:29.242Z,1013.66
2018-09-06T02:11:23.748Z,1013.66
2018-09-06T02:11:24.322Z,1013.69
2018-09-06T02:11:24.921Z,1013.67
2018-09-06T02:11:25.520Z,1013.62
2018-09-06T02:11:26.714Z,1013.59
2018-09-06T02:11:26.732Z,1013.67
2018-09-06T02:11:27.319Z,1013.62
2018-09-06T02:11:27.919Z,1013.63
2018-09-06T02:12:21.414Z,1013.65
2018-09-06T02:12:21.975Z,1013.69
2018-09-06T02:12:22.577Z,1013.71
2018-09-06T02:12:23.174Z,1013.69
2018-09-06T02:12:23.778Z,1013.63
2018-09-06T02:12:24.376Z,1013.68
2018-09-06T02:12:24.975Z,1013.67
2018-09-06T02:12:25.574Z,1013.69
2018-09-06T02:13:20.077Z,1013.69
2018-09-06T02:13:20.648Z,1013.68
2018-09-06T02:13:21.249Z,1013.68
2018-09-06T02:13:21.848Z,1013.70
2018-09-06T02:13:22.449Z,1013.65
2018-09-06T02:13:23.049Z,1013.65
2018-09-06T02:13:23.647Z,1013.69
2018-09-06T02:13:24.253Z,1013.66
2018-09-06T02:14:18.752Z,1013.68
2018-09-06T02:14:19.324Z,1013.67
2018-09-06T02:14:19.923Z,1013.65
2018-09-06T02:14:20.524Z,1013.67
2018-09-06T02:14:21.124Z,1013.65
2018-09-06T02:14:21.723Z,1013.63
2018-09-06T02:14:22.324Z,1013.66
2018-09-06T02:14:22.924Z,1013.67
2018-09-06T02:15:17.428Z,1013.64
2018-09-06T02:15:17.999Z,1013.65
2018-09-06T02:15:18.600Z,1013.69
2018-09-06T02:15:19.199Z,1013.66
2018-09-06T02:15:19.804Z,1013.64
2018-09-06T02:15:20.399Z,1013.68
2018-09-06T02:15:20.998Z,1013.65
2018-09-06T02:15:21.599Z,1013.66
2018-09-06T02:16:15.080Z,1013.66
2018-09-06T02:16:15.652Z,1013.66
2018-09-06T02:16:16.253Z,1013.64
2018-09-06T02:16:16.855Z,1013.69
2018-09-06T02:16:17.452Z,1013.68
2018-09-06T02:16:18.051Z,1013.63
2018-09-06T02:16:18.653Z,1013.67
2018-09-06T02:16:19.252Z,1013.62
2018-09-06T02:17:12.732Z,1013.59
2018-09-06T02:17:13.304Z,1013.64
2018-09-06T02:17:13.908Z,1013.62
2018-09-06T02:17:14.506Z,1013.61
2018-09-06T02:17:15.108Z,1013.63
2018-09-06T02:17:15.707Z,1013.64
2018-09-06T02:17:16.306Z,1013.61
2018-09-06T02:17:16.904Z,1013.62
2018-09-06T02:18:11.408Z,1013.62
2018-09-06T02:18:11.979Z,1013.61
2018-09-06T02:18:12.578Z,1013.63
2018-09-06T02:18:13.179Z,1013.62
2018-09-06T02:18:13.780Z,1013.58
2018-09-06T02:18:14.379Z,1013.62
2018-09-06T02:18:14.978Z,1013.64
2018-09-06T02:18:15.579Z,1013.62
2018-09-06T02:19:09.059Z,1013.60
2018-09-06T02:19:09.643Z,1013.60
2018-09-06T02:19:10.232Z,1013.64
2018-09-06T02:19:10.832Z,1013.62
2018-09-06T02:19:11.432Z,1013.61
2018-09-06T02:19:12.035Z,1013.63
2018-09-06T02:19:12.631Z,1013.63
2018-09-06T02:19:13.230Z,1013.59
2018-09-06T02:20:07.734Z,1013.54
2018-09-06T02:20:08.306Z,1013.59
2018-09-06T02:20:08.918Z,1013.59
2018-09-06T02:20:09.504Z,1013.57
2018-09-06T02:20:10.106Z,1013.56
2018-09-06T02:20:10.704Z,1013.55
2018-09-06T02:20:11.304Z,1013.56
2018-09-06T02:20:11.905Z,1013.60
2018-09-06T02:21:05.387Z,1013.56
2018-09-06T02:21:05.959Z,1013.53
2018-09-06T02:21:06.558Z,1013.58
2018-09-06T02:21:07.160Z,1013.61
2018-09-06T02:21:07.761Z,1013.56
2018-09-06T02:21:08.358Z,1013.58
2018-09-06T02:21:08.960Z,1013.55
2018-09-06T02:21:09.558Z,1013.58
2018-09-06T02:22:03.038Z,1013.55
2018-09-06T02:22:03.610Z,1013.53
2018-09-06T02:22:04.213Z,1013.51
2018-09-06T02:22:04.816Z,1013.56
2018-09-06T02:22:05.410Z,1013.53
2018-09-06T02:22:06.009Z,1013.55
2018-09-06T02:22:06.609Z,1013.53
2018-09-06T02:22:07.208Z,1013.55
2018-09-06T02:23:01.714Z,1013.52
2018-09-06T02:23:02.286Z,1013.51
2018-09-06T02:23:02.885Z,1013.52
2018-09-06T02:23:03.486Z,1013.52
2018-09-06T02:23:04.087Z,1013.51
2018-09-06T02:23:04.685Z,1013.54
2018-09-06T02:23:05.286Z,1013.53
2018-09-06T02:23:05.884Z,1013.52
2018-09-06T02:23:59.367Z,1013.51
2018-09-06T02:23:59.938Z,1013.54
2018-09-06T02:24:00.537Z,1013.52
2018-09-06T02:24:01.139Z,1013.50
2018-09-06T02:24:01.738Z,1013.55
2018-09-06T02:24:02.337Z,1013.51
2018-09-06T02:24:02.937Z,1013.53
2018-09-06T02:24:03.543Z,1013.51
2018-09-06T02:24:58.042Z,1013.50
2018-09-06T02:24:58.613Z,1013.52
2018-09-06T02:24:59.213Z,1013.49
2018-09-06T02:24:59.813Z,1013.48
2018-09-06T02:25:00.419Z,1013.50
2018-09-06T02:25:01.012Z,1013.52
2018-09-06T02:25:01.615Z,1013.49
2018-09-06T02:25:02.212Z,1013.48
2018-09-06T02:25:55.692Z,1013.51
2018-09-06T02:25:56.265Z,1013.50
2018-09-06T02:25:56.865Z,1013.55
2018-09-06T02:25:57.464Z,1013.49
2018-09-06T02:25:58.064Z,1013.49
2018-09-06T02:25:58.669Z,1013.49
2018-09-06T02:25:59.265Z,1013.48
2018-09-06T02:25:59.864Z,1013.52
2018-09-06T02:26:53.345Z,1013.54
2018-09-06T02:26:53.918Z,1013.47
2018-09-06T02:26:54.516Z,1013.50
2018-09-06T02:26:55.118Z,1013.54
2018-09-06T02:26:55.720Z,1013.48
2018-09-06T02:26:56.317Z,1013.51
2018-09-06T02:26:56.917Z,1013.50
2018-09-06T02:26:57.517Z,1013.51
2018-09-06T02:27:50.999Z,1013.46
2018-09-06T02:27:51.569Z,1013.46
2018-09-06T02:27:52.169Z,1013.49
2018-09-06T02:27:52.804Z,1013.53
2018-09-06T02:27:53.369Z,1013.49
2018-09-06T02:27:53.968Z,1013.52
2018-09-06T02:27:54.568Z,1013.49
2018-09-06T02:27:55.169Z,1013.49
2018-09-06T02:28:48.648Z,1013.48
2018-09-06T02:28:49.220Z,1013.49
2018-09-06T02:28:49.821Z,1013.49
2018-09-06T02:28:50.425Z,1013.48
2018-09-06T02:28:51.018Z,1013.53
2018-09-06T02:28:51.624Z,1013.51
2018-09-06T02:28:52.220Z,1013.48
2018-09-06T02:28:52.819Z,1013.52
2018-09-06T02:29:46.300Z,1013.46
2018-09-06T02:29:46.875Z,1013.45
2018-09-06T02:29:47.473Z,1013.47
2018-09-06T02:29:48.071Z,1013.46
2018-09-06T02:29:48.673Z,1013.48
2018-09-06T02:29:49.272Z,1013.48
2018-09-06T02:29:49.872Z,1013.51
2018-09-06T02:29:50.471Z,1013.47
2018-09-06T02:30:44.975Z,1013.46
2018-09-06T02:30:45.549Z,1013.47
2018-09-06T02:30:46.146Z,1013.45
2018-09-06T02:30:46.747Z,1013.46
2018-09-06T02:30:47.348Z,1013.43
2018-09-06T02:30:47.946Z,1013.50
2018-09-06T02:30:48.547Z,1013.45
2018-09-06T02:30:49.147Z,1013.45
2018-09-06T02:31:42.627Z,1013.46
2018-09-06T02:31:43.200Z,1013.49
2018-09-06T02:31:43.800Z,1013.44
2018-09-06T02:31:44.401Z,1013.47
2018-09-06T02:31:45.000Z,1013.46
2018-09-06T02:31:45.600Z,1013.45
2018-09-06T02:31:46.203Z,1013.41
2018-09-06T02:31:46.802Z,1013.45
2018-09-06T02:32:41.303Z,1013.45
2018-09-06T02:32:41.875Z,1013.42
2018-09-06T02:32:42.475Z,1013.43
2018-09-06T02:32:43.074Z,1013.45
2018-09-06T02:32:43.676Z,1013.45
2018-09-06T02:32:44.275Z,1013.45
2018-09-06T02:32:44.874Z,1013.45
2018-09-06T02:32:45.473Z,1013.44
2018-09-06T02:33:38.990Z,1013.45
2018-09-06T02:33:39.527Z,1013.45
2018-09-06T02:33:40.127Z,1013.44
2018-09-06T02:33:40.732Z,1013.45
2018-09-06T02:33:41.327Z,1013.44
2018-09-06T02:33:41.928Z,1013.46
2018-09-06T02:33:42.527Z,1013.46
2018-09-06T02:33:43.128Z,1013.41
2018-09-06T02:34:36.611Z,1013.43
2018-09-06T02:34:37.180Z,1013.43
2018-09-06T02:34:37.782Z,1013.45
2018-09-06T02:34:38.381Z,1013.41
2018-09-06T02:34:38.980Z,1013.40
2018-09-06T02:34:39.581Z,1013.41
2018-09-06T02:34:40.180Z,1013.45
2018-09-06T02:34:40.779Z,1013.41
2018-09-06T02:35:34.260Z,1013.39
2018-09-06T02:35:34.831Z,1013.39
2018-09-06T02:35:35.432Z,1013.36
2018-09-06T02:35:36.031Z,1013.38
2018-09-06T02:35:36.632Z,1013.39
2018-09-06T02:35:37.236Z,1013.39
2018-09-06T02:35:37.830Z,1013.42
2018-09-06T02:35:38.429Z,1013.41
2018-09-06T02:36:32.933Z,1013.41
2018-09-06T02:36:33.505Z,1013.39
2018-09-06T02:36:34.105Z,1013.42
2018-09-06T02:36:34.707Z,1013.38
2018-09-06T02:36:35.309Z,1013.38
2018-09-06T02:36:35.905Z,1013.39
2018-09-06T02:36:36.505Z,1013.40
2018-09-06T02:36:37.105Z,1013.40
2018-09-06T02:37:30.586Z,1013.37
2018-09-06T02:37:31.158Z,1013.35
2018-09-06T02:37:31.760Z,1013.39
2018-09-06T02:37:32.359Z,1013.37
2018-09-06T02:37:32.959Z,1013.39
2018-09-06T02:37:33.559Z,1013.39
2018-09-06T02:37:34.165Z,1013.38
2018-09-06T02:37:34.759Z,1013.39
2018-09-06T02:38:29.261Z,1013.38
2018-09-06T02:38:29.833Z,1013.37
2018-09-06T02:38:30.439Z,1013.33
2018-09-06T02:38:31.032Z,1013.40
2018-09-06T02:38:31.635Z,1013.37
2018-09-06T02:38:32.234Z,1013.37
2018-09-06T02:38:32.832Z,1013.38
2018-09-06T02:38:33.432Z,1013.34
2018-09-06T02:39:27.938Z,1013.33
2018-09-06T02:39:28.509Z,1013.33
2018-09-06T02:39:29.109Z,1013.36
2018-09-06T02:39:29.708Z,1013.36
2018-09-06T02:39:30.309Z,1013.33
2018-09-06T02:39:30.910Z,1013.36
2018-09-06T02:39:31.510Z,1013.35
2018-09-06T02:39:32.109Z,1013.32
2018-09-06T02:40:25.589Z,1013.31
2018-09-06T02:40:26.161Z,1013.34
2018-09-06T02:40:26.762Z,1013.30
2018-09-06T02:40:27.363Z,1013.35
2018-09-06T02:40:27.961Z,1013.33
2018-09-06T02:40:28.561Z,1013.32
2018-09-06T02:40:29.161Z,1013.31
2018-09-06T02:40:29.760Z,1013.33
2018-09-06T02:41:24.265Z,1013.32
2018-09-06T02:41:24.836Z,1013.31
2018-09-06T02:41:25.439Z,1013.30
2018-09-06T02:41:26.035Z,1013.26
2018-09-06T02:41:26.636Z,1013.32
2018-09-06T02:41:27.234Z,1013.33
2018-09-06T02:41:27.834Z,1013.31
2018-09-06T02:41:28.436Z,1013.30
2018-09-06T02:42:22.938Z,1013.28
2018-09-06T02:42:23.511Z,1013.27
2018-09-06T02:42:24.111Z,1013.28
2018-09-06T02:42:24.711Z,1013.30
2018-09-06T02:42:25.313Z,1013.30
2018-09-06T02:42:25.912Z,1013.28
2018-09-06T02:42:26.510Z,1013.35
2018-09-06T02:42:27.110Z,1013.27
2018-09-06T02:43:21.616Z,1013.34
2018-09-06T02:43:22.187Z,1013.27
2018-09-06T02:43:22.795Z,1013.26
2018-09-06T02:43:23.387Z,1013.28
2018-09-06T02:43:23.987Z,1013.29
2018-09-06T02:43:24.586Z,1013.26
2018-09-06T02:43:25.188Z,1013.29
2018-09-06T02:43:25.789Z,1013.30
2018-09-06T02:44:20.289Z,1013.32
2018-09-06T02:44:20.871Z,1013.31
2018-09-06T02:44:21.464Z,1013.29
2018-09-06T02:44:22.064Z,1013.28
2018-09-06T02:44:22.662Z,1013.27
2018-09-06T02:44:23.263Z,1013.30
2018-09-06T02:44:23.865Z,1013.31
2018-09-06T02:44:24.462Z,1013.27
2018-09-06T02:45:17.943Z,1013.25
2018-09-06T02:45:18.516Z,1013.26
2018-09-06T02:45:19.124Z,1013.29
2018-09-06T02:45:19.716Z,1013.27
2018-09-06T02:45:20.315Z,1013.29
2018-09-06T02:45:20.919Z,1013.27
2018-09-06T02:45:21.517Z,1013.31
2018-09-06T02:45:22.115Z,1013.28
2018-09-06T02:46:15.594Z,1013.29
2018-09-06T02:46:16.168Z,1013.29
2018-09-06T02:46:16.767Z,1013.26
2018-09-06T02:46:17.374Z,1013.25
2018-09-06T02:46:17.968Z,1013.26
2018-09-06T02:46:18.568Z,1013.26
2018-09-06T02:46:19.169Z,1013.26
2018-09-06T02:46:19.771Z,1013.29
2018-09-06T02:47:14.270Z,1013.24
2018-09-06T02:47:14.843Z,1013.26
2018-09-06T02:47:15.441Z,1013.26
2018-09-06T02:47:16.042Z,1013.26
2018-09-06T02:47:16.643Z,1013.27
2018-09-06T02:47:17.243Z,1013.24
2018-09-06T02:47:17.842Z,1013.28
2018-09-06T02:47:18.441Z,1013.28
2018-09-06T02:48:12.949Z,1013.26
2018-09-06T02:48:13.531Z,1013.25
2018-09-06T02:48:14.118Z,1013.30
2018-09-06T02:48:14.717Z,1013.26
2018-09-06T02:48:15.317Z,1013.21
2018-09-06T02:48:15.916Z,1013.26
2018-09-06T02:48:16.519Z,1013.25
2018-09-06T02:48:17.117Z,1013.25
2018-09-06T02:49:11.622Z,1013.24
2018-09-06T02:49:12.194Z,1013.24
2018-09-06T02:49:12.796Z,1013.26
2018-09-06T02:49:13.394Z,1013.26
2018-09-06T02:49:13.995Z,1013.27
2018-09-06T02:49:14.593Z,1013.25
2018-09-06T02:49:15.194Z,1013.27
2018-09-06T02:49:15.794Z,1013.26
2018-09-06T02:50:10.295Z,1013.24
2018-09-06T02:50:10.870Z,1013.27
2018-09-06T02:50:11.470Z,1013.24
2018-09-06T02:50:12.069Z,1013.24
2018-09-06T02:50:12.670Z,1013.23
2018-09-06T02:50:13.269Z,1013.24
2018-09-06T02:50:13.869Z,1013.25
2018-09-06T02:50:14.469Z,1013.24
2018-09-06T02:51:07.952Z,1013.24
2018-09-06T02:51:08.522Z,1013.25
2018-09-06T02:51:09.121Z,1013.27
2018-09-06T02:51:09.724Z,1013.25
2018-09-06T02:51:10.321Z,1013.26
2018-09-06T02:51:10.920Z,1013.25
2018-09-06T02:51:11.522Z,1013.23
2018-09-06T02:51:12.123Z,1013.26
2018-09-06T02:52:05.602Z,1013.30
2018-09-06T02:52:06.173Z,1013.24
2018-09-06T02:52:06.773Z,1013.27
2018-09-06T02:52:07.373Z,1013.26
2018-09-06T02:52:07.974Z,1013.26
2018-09-06T02:52:08.573Z,1013.26
2018-09-06T02:52:09.172Z,1013.26
2018-09-06T02:52:09.773Z,1013.27
2018-09-06T02:53:04.276Z,1013.25
2018-09-06T02:53:04.850Z,1013.26
2018-09-06T02:53:05.447Z,1013.27
2018-09-06T02:53:06.048Z,1013.26
2018-09-06T02:53:06.649Z,1013.27
2018-09-06T02:53:07.248Z,1013.29
2018-09-06T02:53:07.847Z,1013.26
2018-09-06T02:53:08.448Z,1013.28
2018-09-06T02:54:02.034Z,1013.24
2018-09-06T02:54:02.536Z,1013.25
2018-09-06T02:54:03.190Z,1013.26
2018-09-06T02:54:03.741Z,1013.28
2018-09-06T02:54:04.301Z,1013.24
2018-09-06T02:54:04.901Z,1013.27
2018-09-06T02:54:05.503Z,1013.24
2018-09-06T02:54:06.101Z,1013.25
2018-09-06T02:54:59.580Z,1013.24
2018-09-06T02:55:00.153Z,1013.25
2018-09-06T02:55:00.755Z,1013.25
2018-09-06T02:55:01.353Z,1013.25
2018-09-06T02:55:01.955Z,1013.25
2018-09-06T02:55:02.552Z,1013.27
2018-09-06T02:55:03.152Z,1013.25
2018-09-06T02:55:03.755Z,1013.27
2018-09-06T02:55:57.232Z,1013.27
2018-09-06T02:55:57.807Z,1013.26
2018-09-06T02:55:58.404Z,1013.26
2018-09-06T02:55:59.005Z,1013.27
2018-09-06T02:55:59.606Z,1013.27
2018-09-06T02:56:00.209Z,1013.25
2018-09-06T02:56:00.810Z,1013.26
2018-09-06T02:56:01.404Z,1013.24
2018-09-06T02:56:55.906Z,1013.26
2018-09-06T02:56:56.478Z,1013.28
2018-09-06T02:56:57.080Z,1013.29
2018-09-06T02:56:57.679Z,1013.25
2018-09-06T02:56:58.279Z,1013.28
2018-09-06T02:56:58.879Z,1013.29
2018-09-06T02:56:59.481Z,1013.28
2018-09-06T02:57:00.079Z,1013.27
2018-09-06T02:57:54.582Z,1013.23
2018-09-06T02:57:55.157Z,1013.26
2018-09-06T02:57:55.754Z,1013.27
2018-09-06T02:57:56.357Z,1013.26
2018-09-06T02:57:56.956Z,1013.27
2018-09-06T02:57:57.557Z,1013.23
2018-09-06T02:57:58.171Z,1013.25
2018-09-06T02:57:58.754Z,1013.26
2018-09-06T02:58:52.234Z,1013.25
2018-09-06T02:58:52.814Z,1013.25
2018-09-06T02:58:53.406Z,1013.23
2018-09-06T02:58:54.015Z,1013.22
2018-09-06T02:58:54.610Z,1013.23
2018-09-06T02:58:55.210Z,1013.26
2018-09-06T02:58:55.808Z,1013.23
2018-09-06T02:58:56.407Z,1013.24